createdAt,value
2018-09-26T00:00:58.486Z,82.12
2018-09-26T00:01:58.527Z,81.88
2018-09-26T00:02:58.458Z,81.98
2018-09-26T00:03:58.441Z,81.57
2018-09-26T00:04:58.444Z,82.02
2018-09-26T00:05:58.441Z,81.71
2018-09-26T00:06:58.413Z,81.37
2018-09-26T00:07:58.416Z,81.98
2018-09-26T00:08:58.393Z,81.57
2018-09-26T00:09:58.375Z,81.67
2018-09-26T00:10:58.379Z,81.47
2018-09-26T00:11:58.357Z,81.57
2018-09-26T00:12:58.340Z,81.26
2018-09-26T00:13:58.344Z,82.09
2018-09-26T00:14:58.328Z,81.26
2018-09-26T00:15:58.333Z,80.65
2018-09-26T00:16:58.305Z,81.47
2018-09-26T00:17:58.288Z,81.67
2018-09-26T00:18:58.278Z,81.88
2018-09-26T00:19:58.271Z,82.09
2018-09-26T00:20:58.274Z,81.92
2018-09-26T00:21:58.248Z,81.09
2018-09-26T00:22:58.239Z,81.81
2018-09-26T00:23:58.241Z,82.12
2018-09-26T00:24:58.215Z,81.71
2018-09-26T00:25:58.224Z,82.23
2018-09-26T00:26:58.194Z,81.61
2018-09-26T00:27:58.198Z,81.92
2018-09-26T00:28:58.178Z,82.12
2018-09-26T00:29:58.158Z,82.12
2018-09-26T00:30:58.160Z,81.57
2018-09-26T00:31:58.147Z,80.85
2018-09-26T00:32:58.123Z,81.09
2018-09-26T00:33:58.122Z,81.40
2018-09-26T00:34:58.107Z,81.77
2018-09-26T00:35:58.198Z,81.47
2018-09-26T00:36:58.110Z,81.40
2018-09-26T00:37:58.117Z,81.81
2018-09-26T00:38:58.066Z,81.57
2018-09-26T00:39:58.079Z,82.02
2018-09-26T00:40:58.058Z,82.74
2018-09-26T00:41:58.027Z,83.15
2018-09-26T00:42:58.038Z,82.43
2018-09-26T00:43:58.014Z,83.50
2018-09-26T00:44:57.993Z,85.05
2018-09-26T00:45:57.991Z,84.01
2018-09-26T00:46:57.982Z,83.61
2018-09-26T00:47:57.985Z,83.61
2018-09-26T00:48:57.957Z,83.54
2018-09-26T00:49:57.941Z,83.91
2018-09-26T00:50:57.948Z,84.36
2018-09-26T00:51:57.921Z,84.27
2018-09-26T00:52:57.914Z,84.36
2018-09-26T00:53:57.906Z,84.57
2018-09-26T00:54:57.898Z,84.78
2018-09-26T00:55:57.879Z,85.85
2018-09-26T00:56:57.869Z,85.91
2018-09-26T00:57:57.859Z,84.92
2018-09-26T00:58:57.847Z,84.99
2018-09-26T00:59:57.848Z,84.61
2018-09-26T01:00:57.830Z,85.33
2018-09-26T01:01:57.807Z,84.81
2018-09-26T01:02:57.810Z,85.39
2018-09-26T01:03:57.808Z,86.05
2018-09-26T01:04:57.796Z,86.05
2018-09-26T01:05:57.814Z,85.95
2018-09-26T01:06:57.758Z,85.85
2018-09-26T01:07:57.744Z,86.05
2018-09-26T01:08:57.730Z,85.85
2018-09-26T01:09:57.744Z,85.75
2018-09-26T01:10:57.718Z,85.85
2018-09-26T01:11:57.712Z,86.57
2018-09-26T01:12:57.722Z,86.68
2018-09-26T01:13:57.699Z,86.36
2018-09-26T01:14:57.707Z,86.78
2018-09-26T01:15:57.658Z,86.78
2018-09-26T01:16:57.644Z,86.68
2018-09-26T01:17:57.643Z,86.61
2018-09-26T01:18:57.635Z,86.71
2018-09-26T01:19:57.634Z,87.29
2018-09-26T01:20:57.607Z,87.60
2018-09-26T01:21:57.589Z,87.81
2018-09-26T01:22:57.581Z,87.85
2018-09-26T01:23:57.620Z,87.44
2018-09-26T01:24:57.565Z,87.19
2018-09-26T01:25:57.549Z,86.78
2018-09-26T01:26:57.548Z,86.32
2018-09-26T01:27:57.527Z,85.85
2018-09-26T01:28:57.528Z,85.81
2018-09-26T01:29:57.512Z,85.19
2018-09-26T01:30:57.500Z,84.57
2018-09-26T01:31:57.498Z,84.74
2018-09-26T01:32:57.485Z,84.53
2018-09-26T01:33:57.484Z,84.33
2018-09-26T01:34:57.449Z,83.91
2018-09-26T01:35:57.439Z,83.91
2018-09-26T01:36:57.448Z,84.01
2018-09-26T01:37:57.428Z,83.50
2018-09-26T01:38:57.423Z,84.01
2018-09-26T01:39:57.400Z,83.50
2018-09-26T01:40:57.382Z,84.01
2018-09-26T01:41:57.380Z,83.91
2018-09-26T01:42:57.376Z,83.81
2018-09-26T01:43:57.369Z,83.71
2018-09-26T01:44:57.371Z,83.50
2018-09-26T01:45:57.327Z,83.19
2018-09-26T01:46:57.318Z,83.09
2018-09-26T01:47:57.308Z,83.40
2018-09-26T01:48:57.309Z,83.29
2018-09-26T01:49:57.302Z,83.50
2018-09-26T01:50:57.291Z,83.50
2018-09-26T01:51:57.266Z,82.98
2018-09-26T01:52:57.261Z,83.29
2018-09-26T01:53:57.251Z,82.98
2018-09-26T01:54:57.242Z,83.29
2018-09-26T01:55:57.222Z,82.89
2018-09-26T01:56:57.229Z,83.09
2018-09-26T01:57:57.199Z,81.92
2018-09-26T01:58:57.188Z,81.71
2018-09-26T01:59:57.196Z,82.12
2018-09-26T02:00:57.162Z,81.54
2018-09-26T02:01:57.160Z,80.68
2018-09-26T02:02:57.153Z,80.89
2018-09-26T02:03:57.152Z,81.30
2018-09-26T02:04:57.139Z,81.30
2018-09-26T02:05:57.111Z,80.27
2018-09-26T02:06:57.101Z,80.99
2018-09-26T02:07:57.089Z,80.58
2018-09-26T02:08:57.079Z,80.27
2018-09-26T02:09:57.120Z,80.37
2018-09-26T02:10:57.071Z,80.89
2018-09-26T02:11:57.054Z,80.79
2018-09-26T02:12:57.064Z,80.47
2018-09-26T02:13:57.030Z,80.06
2018-09-26T02:14:57.016Z,80.47
2018-09-26T02:15:57.009Z,80.79
2018-09-26T02:16:56.997Z,80.79
2018-09-26T02:17:56.993Z,80.89
2018-09-26T02:18:56.973Z,80.68
2018-09-26T02:19:56.960Z,80.58
2018-09-26T02:20:56.945Z,80.47
2018-09-26T02:21:56.962Z,80.68
2018-09-26T02:22:56.953Z,80.47
2018-09-26T02:23:56.918Z,81.13
2018-09-26T02:24:56.910Z,81.23
2018-09-26T02:25:56.890Z,81.34
2018-09-26T02:26:56.886Z,80.51
2018-09-26T02:27:56.886Z,80.68
2018-09-26T02:28:56.883Z,81.23
2018-09-26T02:29:56.846Z,81.03
2018-09-26T02:30:56.840Z,81.85
2018-09-26T02:31:56.829Z,81.44
2018-09-26T02:32:56.825Z,80.72
2018-09-26T02:33:56.826Z,81.54
2018-09-26T02:34:56.818Z,81.75
2018-09-26T02:35:56.805Z,81.75
2018-09-26T02:36:56.790Z,82.20
2018-09-26T02:37:56.767Z,82.06
2018-09-26T02:38:56.768Z,82.30
2018-09-26T02:39:56.742Z,82.20
2018-09-26T02:40:56.726Z,81.79
2018-09-26T02:41:56.725Z,83.03
2018-09-26T02:42:56.718Z,83.23
2018-09-26T02:43:56.711Z,83.03
2018-09-26T02:44:56.688Z,83.33
2018-09-26T02:45:56.697Z,83.23
2018-09-26T02:46:56.666Z,83.89
2018-09-26T02:47:56.671Z,83.37
2018-09-26T02:48:56.647Z,83.95
2018-09-26T02:49:56.629Z,83.89
2018-09-26T02:50:56.620Z,83.85
2018-09-26T02:51:56.620Z,83.89
2018-09-26T02:52:56.595Z,83.95
2018-09-26T02:53:56.613Z,83.48
2018-09-26T02:54:56.579Z,83.85
2018-09-26T02:55:56.568Z,83.95
2018-09-26T02:56:56.561Z,83.54
2018-09-26T02:57:56.544Z,83.37
2018-09-26T02:58:56.541Z,83.58
2018-09-26T02:59:56.550Z,83.95
2018-09-26T03:00:56.518Z,83.58
2018-09-26T03:01:56.511Z,83.99
2018-09-26T03:02:56.494Z,84.13
2018-09-26T03:03:56.492Z,83.93
2018-09-26T03:04:56.476Z,84.34
2018-09-26T03:05:56.469Z,85.02
2018-09-26T03:06:56.460Z,83.93
2018-09-26T03:07:56.437Z,84.96
2018-09-26T03:08:56.445Z,84.86
2018-09-26T03:09:56.421Z,84.86
2018-09-26T03:10:56.468Z,85.89
2018-09-26T03:11:56.406Z,85.78
2018-09-26T03:12:56.378Z,85.21
2018-09-26T03:13:56.396Z,84.75
2018-09-26T03:14:56.379Z,86.10
2018-09-26T03:15:56.372Z,86.10
2018-09-26T03:16:56.348Z,86.10
2018-09-26T03:17:56.347Z,85.37
2018-09-26T03:18:56.318Z,86.44
2018-09-26T03:19:56.307Z,85.31
2018-09-26T03:20:56.301Z,85.41
2018-09-26T03:21:56.308Z,86.03
2018-09-26T03:22:56.272Z,86.10
2018-09-26T03:23:56.266Z,85.83
2018-09-26T03:24:56.250Z,85.89
2018-09-26T03:25:56.249Z,86.03
2018-09-26T03:26:56.245Z,85.72
2018-09-26T03:27:56.249Z,85.72
2018-09-26T03:28:56.215Z,85.93
2018-09-26T03:29:56.195Z,86.44
2018-09-26T03:30:56.190Z,86.55
2018-09-26T03:31:56.191Z,86.44
2018-09-26T03:32:56.185Z,86.76
2018-09-26T03:33:56.168Z,86.65
2018-09-26T03:34:56.152Z,86.76
2018-09-26T03:35:56.144Z,86.86
2018-09-26T03:36:56.118Z,86.44
2018-09-26T03:37:56.131Z,86.34
2018-09-26T03:38:56.128Z,86.44
2018-09-26T03:39:56.097Z,86.55
2018-09-26T03:40:56.107Z,86.44
2018-09-26T03:41:56.065Z,86.76
2018-09-26T03:42:56.057Z,86.55
2018-09-26T03:43:56.066Z,86.34
2018-09-26T03:44:56.054Z,86.59
2018-09-26T03:45:56.028Z,86.90
2018-09-26T03:46:56.023Z,86.59
2018-09-26T03:47:56.014Z,86.65
2018-09-26T03:48:55.993Z,86.76
2018-09-26T03:49:55.984Z,86.79
2018-09-26T03:50:55.970Z,86.79
2018-09-26T03:51:55.976Z,86.90
2018-09-26T03:52:55.965Z,87.10
2018-09-26T03:53:55.944Z,87.10
2018-09-26T03:54:55.937Z,87.00
2018-09-26T03:55:55.917Z,87.31
2018-09-26T03:56:55.901Z,87.15
2018-09-26T03:57:55.908Z,86.49
2018-09-26T03:58:55.906Z,86.90
2018-09-26T03:59:55.883Z,86.69
2018-09-26T04:00:55.865Z,86.69
2018-09-26T04:01:55.848Z,87.10
2018-09-26T04:02:55.854Z,86.69
2018-09-26T04:03:55.830Z,86.79
2018-09-26T04:04:55.885Z,86.42
2018-09-26T04:05:55.818Z,86.49
2018-09-26T04:06:55.796Z,86.79
2018-09-26T04:07:55.785Z,86.49
2018-09-26T04:08:55.785Z,86.90
2018-09-26T04:09:55.787Z,86.69
2018-09-26T04:10:55.763Z,86.79
2018-09-26T04:11:55.760Z,86.90
2018-09-26T04:12:55.788Z,86.94
2018-09-26T04:13:55.747Z,86.63
2018-09-26T04:14:55.714Z,86.42
2018-09-26T04:15:55.697Z,86.32
2018-09-26T04:16:55.697Z,86.52
2018-09-26T04:17:55.687Z,86.83
2018-09-26T04:18:55.671Z,87.21
2018-09-26T04:19:55.674Z,86.07
2018-09-26T04:20:55.650Z,86.52
2018-09-26T04:21:55.644Z,87.04
2018-09-26T04:22:55.627Z,87.46
2018-09-26T04:23:55.622Z,87.25
2018-09-26T04:24:55.620Z,86.83
2018-09-26T04:25:55.593Z,87.35
2018-09-26T04:26:55.828Z,87.35
2018-09-26T04:27:55.602Z,86.83
2018-09-26T04:28:55.561Z,86.90
2018-09-26T04:29:55.562Z,86.94
2018-09-26T04:30:55.552Z,87.21
2018-09-26T04:31:55.540Z,86.94
2018-09-26T04:32:55.692Z,86.79
2018-09-26T04:33:55.564Z,86.90
2018-09-26T04:34:55.510Z,86.59
2018-09-26T04:35:55.546Z,86.24
2018-09-26T04:36:55.479Z,86.44
2018-09-26T04:37:55.477Z,86.90
2018-09-26T04:38:55.734Z,86.76
2018-09-26T04:39:55.454Z,86.55
2018-09-26T04:40:55.433Z,86.34
2018-09-26T04:41:55.421Z,86.55
2018-09-26T04:42:55.412Z,86.55
2018-09-26T04:43:55.411Z,86.13
2018-09-26T04:44:55.394Z,86.44
2018-09-26T04:45:55.388Z,85.62
2018-09-26T04:46:55.362Z,86.13
2018-09-26T04:47:55.351Z,86.65
2018-09-26T04:48:55.357Z,85.93
2018-09-26T04:49:55.342Z,86.55
2018-09-26T04:50:55.429Z,85.93
2018-09-26T04:51:55.312Z,86.03
2018-09-26T04:52:55.303Z,85.62
2018-09-26T04:53:55.298Z,85.72
2018-09-26T04:54:55.303Z,85.10
2018-09-26T04:55:55.286Z,85.83
2018-09-26T04:56:55.286Z,85.00
2018-09-26T04:57:55.311Z,84.69
2018-09-26T04:58:55.234Z,84.89
2018-09-26T04:59:55.229Z,84.28
2018-09-26T05:00:55.226Z,84.79
2018-09-26T05:01:55.228Z,85.10
2018-09-26T05:02:55.201Z,84.69
2018-09-26T05:03:55.196Z,84.89
2018-09-26T05:04:55.179Z,84.59
2018-09-26T05:05:55.167Z,84.89
2018-09-26T05:06:55.182Z,85.37
2018-09-26T05:07:55.156Z,84.44
2018-09-26T05:08:55.160Z,84.79
2018-09-26T05:09:55.121Z,85.00
2018-09-26T05:10:55.111Z,84.86
2018-09-26T05:11:55.104Z,84.89
2018-09-26T05:12:55.093Z,84.48
2018-09-26T05:13:55.103Z,84.86
2018-09-26T05:14:55.071Z,85.00
2018-09-26T05:15:55.072Z,84.89
2018-09-26T05:16:55.121Z,85.00
2018-09-26T05:17:55.040Z,85.21
2018-09-26T05:18:55.019Z,84.75
2018-09-26T05:19:55.009Z,84.59
2018-09-26T05:20:54.999Z,84.59
2018-09-26T05:21:54.999Z,85.00
2018-09-26T05:22:55.117Z,85.10
2018-09-26T05:23:54.965Z,85.00
2018-09-26T05:24:54.957Z,84.79
2018-09-26T05:25:54.949Z,85.21
2018-09-26T05:26:54.965Z,86.13
2018-09-26T05:27:54.948Z,85.62
2018-09-26T05:28:54.917Z,85.62
2018-09-26T05:29:54.903Z,86.03
2018-09-26T05:30:54.892Z,85.86
2018-09-26T05:31:54.879Z,86.28
2018-09-26T05:32:54.880Z,86.79
2018-09-26T05:33:54.877Z,86.69
2018-09-26T05:34:54.857Z,87.00
2018-09-26T05:35:54.847Z,87.52
2018-09-26T05:36:54.864Z,87.83
2018-09-26T05:37:54.822Z,87.31
2018-09-26T05:38:54.817Z,87.15
2018-09-26T05:39:54.806Z,87.46
2018-09-26T05:40:54.792Z,87.04
2018-09-26T05:41:54.780Z,87.46
2018-09-26T05:42:54.783Z,87.35
2018-09-26T05:43:54.762Z,88.18
2018-09-26T05:44:54.743Z,87.35
2018-09-26T05:45:54.746Z,87.73
2018-09-26T05:46:54.737Z,88.04
2018-09-26T05:47:54.723Z,87.41
2018-09-26T05:48:54.722Z,86.73
2018-09-26T05:49:54.691Z,86.69
2018-09-26T05:50:54.675Z,86.18
2018-09-26T05:51:54.667Z,87.00
2018-09-26T05:52:54.668Z,87.31
2018-09-26T05:53:54.651Z,87.41
2018-09-26T05:54:54.656Z,87.10
2018-09-26T05:55:54.627Z,87.21
2018-09-26T05:56:54.614Z,87.21
2018-09-26T05:57:54.608Z,87.10
2018-09-26T05:58:54.603Z,86.79
2018-09-26T05:59:54.621Z,87.21
2018-09-26T06:00:54.573Z,88.14
2018-09-26T06:01:54.560Z,87.27
2018-09-26T06:02:54.550Z,87.89
2018-09-26T06:03:54.542Z,87.79
2018-09-26T06:04:54.547Z,87.27
2018-09-26T06:05:54.527Z,86.76
2018-09-26T06:06:54.511Z,86.13
2018-09-26T06:07:54.508Z,86.55
2018-09-26T06:08:54.499Z,85.72
2018-09-26T06:09:54.534Z,85.21
2018-09-26T06:10:54.472Z,84.75
2018-09-26T06:11:54.462Z,84.75
2018-09-26T06:12:54.481Z,85.17
2018-09-26T06:13:54.434Z,84.03
2018-09-26T06:14:54.435Z,83.27
2018-09-26T06:15:54.411Z,83.58
2018-09-26T06:16:54.402Z,83.48
2018-09-26T06:17:54.393Z,83.37
2018-09-26T06:18:54.452Z,83.27
2018-09-26T06:19:54.385Z,82.14
2018-09-26T06:20:54.380Z,81.79
2018-09-26T06:21:54.347Z,82.10
2018-09-26T06:22:54.333Z,82.10
2018-09-26T06:23:54.320Z,82.20
2018-09-26T06:24:54.313Z,81.85
2018-09-26T06:25:54.334Z,82.06
2018-09-26T06:26:54.295Z,81.75
2018-09-26T06:27:54.279Z,81.44
2018-09-26T06:28:54.273Z,81.13
2018-09-26T06:29:54.265Z,80.82
2018-09-26T06:30:54.271Z,80.93
2018-09-26T06:31:54.240Z,80.93
2018-09-26T06:32:54.237Z,80.51
2018-09-26T06:33:54.217Z,80.72
2018-09-26T06:34:54.239Z,79.44
2018-09-26T06:35:54.238Z,80.89
2018-09-26T06:36:54.180Z,79.27
2018-09-26T06:37:54.177Z,79.65
2018-09-26T06:38:54.166Z,79.44
2018-09-26T06:39:54.158Z,81.20
2018-09-26T06:40:54.140Z,80.79
2018-09-26T06:41:54.158Z,81.30
2018-09-26T06:42:54.114Z,81.09
2018-09-26T06:43:54.111Z,80.89
2018-09-26T06:44:54.097Z,80.89
2018-09-26T06:45:54.113Z,80.44
2018-09-26T06:46:54.088Z,82.09
2018-09-26T06:47:54.060Z,82.09
2018-09-26T06:48:54.054Z,79.20
2018-09-26T06:49:54.046Z,80.85
2018-09-26T06:50:54.041Z,80.85
2018-09-26T06:51:54.023Z,80.91
2018-09-26T06:52:54.025Z,80.85
2018-09-26T06:53:54.041Z,80.61
2018-09-26T06:54:53.983Z,80.51
2018-09-26T06:55:53.972Z,80.40
2018-09-26T06:56:53.966Z,80.47
2018-09-26T06:57:53.975Z,80.67
2018-09-26T06:58:53.950Z,79.54
2018-09-26T06:59:53.936Z,80.63
2018-09-26T07:00:53.919Z,79.57
2018-09-26T07:01:53.913Z,79.47
2018-09-26T07:02:53.923Z,78.44
2018-09-26T07:03:53.893Z,78.54
2018-09-26T07:04:53.877Z,77.00
2018-09-26T07:05:53.863Z,76.65
2018-09-26T07:06:53.858Z,76.28
2018-09-26T07:07:53.838Z,76.35
2018-09-26T07:08:53.844Z,76.62
2018-09-26T07:09:53.836Z,76.10
2018-09-26T07:10:53.816Z,75.76
2018-09-26T07:11:53.804Z,76.17
2018-09-26T07:12:53.800Z,76.38
2018-09-26T07:13:53.779Z,76.45
2018-09-26T07:14:53.767Z,74.70
2018-09-26T07:15:53.795Z,74.77
2018-09-26T07:16:53.752Z,72.89
2018-09-26T07:17:53.770Z,73.95
2018-09-26T07:18:53.739Z,72.31
2018-09-26T07:19:53.766Z,72.38
2018-09-26T07:20:53.718Z,72.14
2018-09-26T07:21:53.703Z,70.57
2018-09-26T07:22:53.708Z,70.26
2018-09-26T07:23:53.690Z,70.06
2018-09-26T07:24:53.658Z,70.26
2018-09-26T07:25:53.647Z,69.85
2018-09-26T07:26:53.639Z,71.42
2018-09-26T07:27:53.624Z,71.66
2018-09-26T07:28:53.649Z,71.62
2018-09-26T07:29:53.604Z,72.04
2018-09-26T07:30:53.597Z,71.42
2018-09-26T07:31:53.600Z,72.04
2018-09-26T07:32:53.590Z,70.78
2018-09-26T07:33:53.594Z,70.78
2018-09-26T07:34:53.551Z,70.67
2018-09-26T07:35:53.541Z,70.67
2018-09-26T07:36:53.526Z,68.32
2018-09-26T07:37:53.515Z,68.42
2018-09-26T07:38:53.520Z,69.31
2018-09-26T07:39:53.491Z,67.30
2018-09-26T07:40:53.486Z,67.19
2018-09-26T07:41:53.472Z,67.71
2018-09-26T07:42:53.486Z,68.35
2018-09-26T07:43:53.465Z,67.33
2018-09-26T07:44:53.463Z,66.92
2018-09-26T07:45:53.514Z,67.91
2018-09-26T07:46:53.414Z,69.34
2018-09-26T07:47:53.412Z,69.85
2018-09-26T07:48:53.396Z,67.64
2018-09-26T07:49:53.398Z,66.48
2018-09-26T07:50:53.368Z,67.30
2018-09-26T07:51:53.357Z,66.48
2018-09-26T07:52:53.392Z,67.23
2018-09-26T07:53:53.387Z,65.80
2018-09-26T07:54:53.346Z,65.77
2018-09-26T07:55:53.352Z,66.58
2018-09-26T07:56:53.307Z,65.77
2018-09-26T07:57:53.347Z,66.17
2018-09-26T07:58:53.308Z,64.71
2018-09-26T07:59:53.297Z,64.37
2018-09-26T08:00:53.271Z,63.66
2018-09-26T08:01:53.258Z,63.32
2018-09-26T08:02:53.246Z,61.97
2018-09-26T08:03:53.231Z,61.56
2018-09-26T08:04:53.226Z,62.04
2018-09-26T08:05:53.240Z,60.10
2018-09-26T08:06:53.214Z,60.10
2018-09-26T08:07:53.188Z,59.69
2018-09-26T08:08:53.179Z,59.69
2018-09-26T08:09:53.172Z,59.77
2018-09-26T08:10:53.148Z,59.18
2018-09-26T08:11:53.155Z,59.28
2018-09-26T08:12:53.131Z,60.07
2018-09-26T08:13:53.122Z,60.00
2018-09-26T08:14:53.124Z,60.21
2018-09-26T08:15:53.119Z,60.61
2018-09-26T08:16:53.092Z,60.94
2018-09-26T08:17:53.077Z,62.14
2018-09-26T08:18:53.082Z,60.61
2018-09-26T08:19:53.055Z,59.69
2018-09-26T08:20:53.043Z,60.92
2018-09-26T08:21:53.040Z,60.48
2018-09-26T08:22:53.018Z,60.38
2018-09-26T08:23:53.105Z,59.77
2018-09-26T08:24:53.006Z,59.94
2018-09-26T08:25:52.989Z,60.14
2018-09-26T08:26:52.982Z,61.88
2018-09-26T08:27:52.970Z,61.68
2018-09-26T08:28:52.988Z,59.17
2018-09-26T08:29:52.983Z,59.38
2018-09-26T08:30:52.940Z,57.87
2018-09-26T08:31:52.916Z,58.56
2018-09-26T08:32:52.906Z,57.78
2018-09-26T08:33:52.898Z,56.96
2018-09-26T08:34:53.269Z,57.78
2018-09-26T08:35:52.871Z,58.82
2018-09-26T08:36:52.873Z,59.41
2018-09-26T08:37:52.855Z,59.61
2018-09-26T08:38:52.847Z,57.57
2018-09-26T08:39:52.836Z,57.57
2018-09-26T08:40:52.826Z,58.49
2018-09-26T08:41:52.850Z,60.63
2018-09-26T08:42:52.811Z,61.21
2018-09-26T08:43:52.845Z,58.56
2018-09-26T08:44:52.775Z,59.86
2018-09-26T08:45:52.772Z,57.39
2018-09-26T08:46:52.765Z,56.75
2018-09-26T08:47:52.762Z,56.68
2018-09-26T08:48:52.733Z,56.68
2018-09-26T08:49:52.747Z,57.16
2018-09-26T08:50:52.715Z,56.47
2018-09-26T08:51:52.706Z,55.96
2018-09-26T08:52:52.687Z,56.95
2018-09-26T08:53:52.744Z,57.87
2018-09-26T08:54:52.660Z,58.86
2018-09-26T08:55:52.650Z,56.82
2018-09-26T08:56:52.658Z,57.81
2018-09-26T08:57:52.780Z,56.37
2018-09-26T08:58:52.666Z,54.24
2018-09-26T08:59:52.624Z,53.70
2018-09-26T09:00:52.599Z,52.18
2018-09-26T09:01:52.594Z,54.72
2018-09-26T09:02:52.575Z,56.67
2018-09-26T09:03:52.580Z,54.31
2018-09-26T09:04:52.568Z,55.22
2018-09-26T09:05:52.583Z,52.15
2018-09-26T09:06:52.537Z,50.84
2018-09-26T09:07:52.524Z,51.06
2018-09-26T09:08:52.518Z,51.77
2018-09-26T09:09:52.502Z,51.67
2018-09-26T09:10:52.495Z,52.48
2018-09-26T09:11:52.501Z,53.60
2018-09-26T09:12:52.468Z,48.40
2018-09-26T09:13:52.468Z,48.32
2018-09-26T09:14:52.666Z,51.95
2018-09-26T09:15:52.441Z,51.04
2018-09-26T09:16:52.423Z,49.19
2018-09-26T09:17:52.526Z,49.47
2018-09-26T09:18:52.405Z,47.34
2018-09-26T09:19:52.394Z,49.16
2018-09-26T09:20:52.391Z,48.46
2018-09-26T09:21:52.403Z,49.77
2018-09-26T09:22:52.366Z,48.96
2018-09-26T09:23:52.349Z,46.63
2018-09-26T09:24:52.346Z,46.53
2018-09-26T09:25:52.321Z,48.38
2018-09-26T09:26:52.312Z,48.68
2018-09-26T09:27:52.332Z,48.18
2018-09-26T09:28:52.287Z,50.31
2018-09-26T09:29:59.933Z,48.48
2018-09-26T09:30:52.273Z,51.01
2018-09-26T09:31:52.257Z,49.37
2018-09-26T09:32:52.246Z,50.68
2018-09-26T09:33:52.234Z,49.47
2018-09-26T09:34:52.237Z,49.34
2018-09-26T09:35:52.244Z,46.71
2018-09-26T09:36:52.211Z,47.11
2018-09-26T09:37:52.194Z,47.22
2018-09-26T09:38:52.200Z,46.94
2018-09-26T09:39:52.188Z,47.24
2018-09-26T09:40:52.187Z,46.83
2018-09-26T09:41:52.169Z,46.43
2018-09-26T09:42:52.146Z,46.43
2018-09-26T09:43:52.143Z,46.12
2018-09-26T09:44:52.135Z,46.51
2018-09-26T09:45:52.106Z,45.37
2018-09-26T09:46:52.118Z,44.90
2018-09-26T09:47:52.104Z,46.02
2018-09-26T09:48:52.084Z,47.14
2018-09-26T09:49:52.075Z,46.30
2018-09-26T09:50:52.056Z,48.03
2018-09-26T09:51:52.050Z,46.61
2018-09-26T09:52:52.057Z,46.12
2018-09-26T09:53:52.020Z,46.12
2018-09-26T09:54:52.018Z,46.43
2018-09-26T09:55:52.003Z,46.61
2018-09-26T09:56:51.982Z,47.42
2018-09-26T09:57:51.982Z,45.98
2018-09-26T09:58:51.959Z,47.80
2018-09-26T09:59:51.966Z,46.06
2018-09-26T10:00:51.940Z,44.52
2018-09-26T10:01:51.930Z,46.84
2018-09-26T10:02:51.944Z,45.71
2018-09-26T10:03:51.948Z,44.37
2018-09-26T10:04:51.976Z,43.97
2018-09-26T10:05:51.905Z,44.48
2018-09-26T10:06:51.871Z,44.07
2018-09-26T10:07:51.870Z,44.58
2018-09-26T10:08:51.881Z,45.08
2018-09-26T10:09:51.925Z,44.48
2018-09-26T10:10:51.838Z,44.09
2018-09-26T10:11:51.823Z,43.81
2018-09-26T10:12:51.827Z,43.30
2018-09-26T10:13:51.801Z,45.91
2018-09-26T10:14:51.791Z,44.20
2018-09-26T10:15:51.793Z,43.18
2018-09-26T10:16:51.770Z,43.61
2018-09-26T10:17:51.746Z,43.91
2018-09-26T10:18:51.748Z,44.72
2018-09-26T10:19:51.738Z,44.12
2018-09-26T10:20:51.731Z,44.37
2018-09-26T10:21:51.734Z,45.69
2018-09-26T10:22:51.710Z,45.49
2018-09-26T10:23:51.687Z,44.56
2018-09-26T10:24:51.671Z,44.66
2018-09-26T10:25:51.674Z,43.65
2018-09-26T10:26:51.673Z,43.65
2018-09-26T10:27:51.712Z,43.65
2018-09-26T10:28:51.641Z,42.43
2018-09-26T10:29:51.626Z,41.93
2018-09-26T10:30:51.612Z,43.75
2018-09-26T10:31:51.609Z,42.64
2018-09-26T10:32:51.624Z,43.75
2018-09-26T10:33:51.587Z,45.45
2018-09-26T10:34:52.007Z,43.51
2018-09-26T10:35:51.557Z,43.80
2018-09-26T10:36:51.544Z,41.69
2018-09-26T10:37:51.543Z,41.41
2018-09-26T10:38:51.525Z,41.93
2018-09-26T10:39:51.523Z,46.17
2018-09-26T10:40:51.519Z,43.06
2018-09-26T10:41:51.538Z,44.17
2018-09-26T10:42:51.487Z,46.09
2018-09-26T10:43:51.479Z,45.26
2018-09-26T10:44:51.488Z,43.77
2018-09-26T10:45:51.457Z,41.99
2018-09-26T10:46:51.450Z,43.43
2018-09-26T10:47:51.428Z,44.24
2018-09-26T10:48:51.414Z,47.07
2018-09-26T10:49:51.419Z,46.67
2018-09-26T10:50:51.416Z,44.34
2018-09-26T10:51:51.385Z,43.63
2018-09-26T10:52:51.395Z,46.36
2018-09-26T10:53:51.369Z,44.54
2018-09-26T10:54:51.350Z,44.54
2018-09-26T10:55:51.349Z,43.52
2018-09-26T10:56:51.333Z,44.06
2018-09-26T10:57:51.324Z,46.67
2018-09-26T10:58:51.383Z,44.46
2018-09-26T10:59:51.329Z,43.65
2018-09-26T11:00:51.300Z,44.26
2018-09-26T11:01:51.268Z,44.58
2018-09-26T11:02:51.278Z,45.59
2018-09-26T11:03:51.267Z,44.81
2018-09-26T11:04:51.287Z,45.62
2018-09-26T11:05:51.228Z,45.87
2018-09-26T11:06:51.227Z,44.66
2018-09-26T11:07:51.204Z,45.67
2018-09-26T11:08:51.264Z,44.36
2018-09-26T11:09:51.202Z,44.24
2018-09-26T11:10:51.178Z,45.35
2018-09-26T11:11:51.163Z,46.16
2018-09-26T11:12:51.175Z,44.24
2018-09-26T11:13:51.205Z,44.03
2018-09-26T11:14:51.126Z,47.78
2018-09-26T11:15:51.129Z,45.63
2018-09-26T11:16:51.106Z,47.13
2018-09-26T11:17:51.096Z,44.98
2018-09-26T11:18:51.140Z,45.18
2018-09-26T11:19:51.082Z,42.43
2018-09-26T11:20:51.067Z,41.42
2018-09-26T11:21:51.055Z,43.93
2018-09-26T11:22:51.038Z,40.82
2018-09-26T11:23:51.072Z,41.75
2018-09-26T11:24:51.041Z,43.57
2018-09-26T11:25:51.014Z,42.64
2018-09-26T11:26:51.009Z,43.04
2018-09-26T11:27:50.991Z,44.03
2018-09-26T11:28:50.973Z,44.84
2018-09-26T11:29:50.989Z,41.50
2018-09-26T11:30:50.956Z,43.02
2018-09-26T11:31:50.942Z,42.52
2018-09-26T11:32:50.991Z,42.41
2018-09-26T11:33:50.999Z,42.61
2018-09-26T11:34:50.921Z,41.32
2018-09-26T11:35:50.947Z,42.86
2018-09-26T11:36:50.895Z,43.26
2018-09-26T11:37:50.885Z,44.56
2018-09-26T11:38:50.872Z,43.55
2018-09-26T11:39:50.852Z,44.05
2018-09-26T11:40:50.851Z,42.54
2018-09-26T11:41:50.833Z,43.34
2018-09-26T11:42:50.868Z,43.06
2018-09-26T11:43:50.831Z,44.07
2018-09-26T11:44:50.945Z,44.20
2018-09-26T11:45:50.812Z,43.41
2018-09-26T11:46:50.780Z,44.01
2018-09-26T11:47:50.770Z,43.83
2018-09-26T11:48:50.764Z,42.01
2018-09-26T11:49:50.752Z,43.02
2018-09-26T11:50:50.747Z,44.03
2018-09-26T11:51:50.751Z,44.12
2018-09-26T11:52:50.730Z,43.20
2018-09-26T11:53:50.704Z,43.61
2018-09-26T11:54:50.694Z,41.97
2018-09-26T11:55:50.700Z,41.87
2018-09-26T11:56:50.692Z,42.37
2018-09-26T11:57:50.666Z,41.38
2018-09-26T11:58:50.705Z,41.38
2018-09-26T11:59:50.635Z,42.90
2018-09-26T12:00:50.623Z,41.18
2018-09-26T12:01:50.621Z,41.99
2018-09-26T12:02:50.621Z,41.00
2018-09-26T12:03:50.601Z,43.02
2018-09-26T12:04:50.582Z,42.21
2018-09-26T12:05:50.571Z,42.01
2018-09-26T12:06:50.558Z,41.50
2018-09-26T12:07:50.565Z,41.60
2018-09-26T12:08:50.559Z,43.12
2018-09-26T12:09:50.589Z,41.60
2018-09-26T12:10:50.521Z,41.78
2018-09-26T12:11:50.512Z,42.49
2018-09-26T12:12:50.511Z,40.80
2018-09-26T12:13:50.553Z,42.19
2018-09-26T12:14:50.556Z,41.40
2018-09-26T12:15:50.470Z,43.00
2018-09-26T12:16:50.455Z,41.20
2018-09-26T12:17:50.439Z,41.50
2018-09-26T12:18:50.451Z,42.11
2018-09-26T12:19:50.446Z,42.90
2018-09-26T12:20:50.414Z,41.99
2018-09-26T12:21:50.461Z,41.28
2018-09-26T12:22:50.388Z,41.69
2018-09-26T12:23:50.426Z,43.00
2018-09-26T12:24:50.367Z,40.67
2018-09-26T12:25:50.349Z,41.38
2018-09-26T12:26:50.350Z,41.78
2018-09-26T12:27:50.392Z,41.38
2018-09-26T12:28:50.325Z,41.87
2018-09-26T12:29:50.331Z,42.17
2018-09-26T12:30:50.313Z,41.26
2018-09-26T12:31:50.290Z,40.84
2018-09-26T12:32:50.274Z,41.04
2018-09-26T12:33:50.270Z,39.95
2018-09-26T12:34:50.337Z,39.95
2018-09-26T12:35:50.269Z,41.16
2018-09-26T12:36:50.267Z,41.35
2018-09-26T12:37:50.218Z,40.33
2018-09-26T12:38:50.218Z,41.06
2018-09-26T12:39:50.201Z,39.56
2018-09-26T12:40:50.194Z,41.28
2018-09-26T12:41:50.202Z,41.69
2018-09-26T12:42:50.233Z,41.89
2018-09-26T12:43:50.167Z,39.66
2018-09-26T12:44:50.180Z,40.37
2018-09-26T12:45:50.138Z,39.44
2018-09-26T12:46:50.132Z,40.95
2018-09-26T12:47:50.132Z,41.16
2018-09-26T12:48:50.134Z,40.75
2018-09-26T12:49:50.089Z,39.52
2018-09-26T12:50:50.073Z,38.82
2018-09-26T12:51:50.073Z,39.42
2018-09-26T12:52:50.070Z,39.22